sensor_id;sensor_type;location;lat;lon;timestamp;pressure;altitude;pressure_sealevel;temperature;humidity
75312;BME280;63906;55.686;37.532;2022-12-07T00:02:34;100700.09;;;-6.93;46.50
75312;BME280;63906;55.686;37.532;2022-12-07T00:07:35;100677.56;;;-7.33;47.67
75312;BME280;63906;55.686;37.532;2022-12-07T00:12:35;100702.59;;;-6.91;47.32
75312;BME280;63906;55.686;37.532;2022-12-07T00:17:36;100685.44;;;-7.39;47.66
75312;BME280;63906;55.686;37.532;2022-12-07T00:22:36;100701.47;;;-7.34;48.37
75312;BME280;63906;55.686;37.532;2022-12-07T00:27:37;100700.59;;;-7.33;48.15
75312;BME280;63906;55.686;37.532;2022-12-07T00:32:37;100703.63;;;-7.22;48.11
75312;BME280;63906;55.686;37.532;2022-12-07T00:37:38;100671.78;;;-7.38;48.31
75312;BME280;63906;55.686;37.532;2022-12-07T00:42:38;100679.94;;;-7.53;48.88
75312;BME280;63906;55.686;37.532;2022-12-07T00:47:39;100701.09;;;-7.48;48.86
75312;BME280;63906;55.686;37.532;2022-12-07T00:52:39;100700.75;;;-7.38;47.97
75312;BME280;63906;55.686;37.532;2022-12-07T00:57:40;100704.63;;;-7.52;49.35
75312;BME280;63906;55.686;37.532;2022-12-07T01:02:40;100673.56;;;-7.67;48.56
75312;BME280;63906;55.686;37.532;2022-12-07T01:07:41;100693.56;;;-7.53;48.97
75312;BME280;63906;55.686;37.532;2022-12-07T01:12:41;100693.88;;;-7.62;49.13
75312;BME280;63906;55.686;37.532;2022-12-07T01:17:42;100674.84;;;-7.80;49.30
75312;BME280;63906;55.686;37.532;2022-12-07T01:22:43;100663.22;;;-7.90;50.19
75312;BME280;63906;55.686;37.532;2022-12-07T01:27:44;100693.13;;;-7.66;49.36
75312;BME280;63906;55.686;37.532;2022-12-07T01:32:44;100663.31;;;-7.93;49.67
75312;BME280;63906;55.686;37.532;2022-12-07T01:37:45;100669.81;;;-7.83;49.51
75312;BME280;63906;55.686;37.532;2022-12-07T01:42:48;100646.34;;;-7.94;49.54
75312;BME280;63906;55.686;37.532;2022-12-07T01:47:52;100654.63;;;-7.88;49.58
75312;BME280;63906;55.686;37.532;2022-12-07T01:52:56;100675.47;;;-7.73;48.82
75312;BME280;63906;55.686;37.532;2022-12-07T01:57:59;100654.78;;;-7.92;49.52
75312;BME280;63906;55.686;37.532;2022-12-07T02:08:07;100659.50;;;-7.80;49.17
75312;BME280;63906;55.686;37.532;2022-12-07T02:13:13;100623.59;;;-8.03;49.81
75312;BME280;63906;55.686;37.532;2022-12-07T02:34:37;100641.53;;;-8.05;51.20
75312;BME280;63906;55.686;37.532;2022-12-07T02:39:52;100632.16;;;-8.32;51.24
75312;BME280;63906;55.686;37.532;2022-12-07T02:44:55;100645.25;;;-8.15;50.91
75312;BME280;63906;55.686;37.532;2022-12-07T02:49:58;100624.13;;;-8.20;50.96
75312;BME280;63906;55.686;37.532;2022-12-07T02:54:59;100654.75;;;-8.19;51.78
75312;BME280;63906;55.686;37.532;2022-12-07T03:16:18;100635.44;;;-8.55;52.80
75312;BME280;63906;55.686;37.532;2022-12-07T03:21:26;100644.47;;;-8.45;52.72
75312;BME280;63906;55.686;37.532;2022-12-07T03:26:42;100639.53;;;-8.50;53.14
75312;BME280;63906;55.686;37.532;2022-12-07T03:32:14;100639.88;;;-8.63;53.13
75312;BME280;63906;55.686;37.532;2022-12-07T03:37:33;100640.06;;;-8.40;53.15
75312;BME280;63906;55.686;37.532;2022-12-07T03:42:35;100605.88;;;-8.64;53.83
75312;BME280;63906;55.686;37.532;2022-12-07T03:53:15;100610.06;;;-8.91;54.91
75312;BME280;63906;55.686;37.532;2022-12-07T03:58:20;100634.34;;;-8.78;54.73
75312;BME280;63906;55.686;37.532;2022-12-07T04:03:22;100642.09;;;-8.81;55.59
75312;BME280;63906;55.686;37.532;2022-12-07T04:08:22;100618.06;;;-9.03;56.03
75312;BME280;63906;55.686;37.532;2022-12-07T04:13:23;100638.13;;;-8.91;56.79
75312;BME280;63906;55.686;37.532;2022-12-07T04:18:23;100583.97;;;-9.32;56.46
75312;BME280;63906;55.686;37.532;2022-12-07T04:23:24;100636.38;;;-9.22;58.00
75312;BME280;63906;55.686;37.532;2022-12-07T04:28:24;100639.00;;;-9.23;58.53
75312;BME280;63906;55.686;37.532;2022-12-07T04:33:25;100616.41;;;-9.37;58.88
75312;BME280;63906;55.686;37.532;2022-12-07T04:38:25;100611.06;;;-9.28;58.78
75312;BME280;63906;55.686;37.532;2022-12-07T04:43:26;100633.28;;;-9.33;60.03
75312;BME280;63906;55.686;37.532;2022-12-07T04:48:28;100627.84;;;-9.19;59.75
75312;BME280;63906;55.686;37.532;2022-12-07T04:53:28;100607.06;;;-9.36;59.52
75312;BME280;63906;55.686;37.532;2022-12-07T04:58:29;100629.78;;;-9.29;59.79
75312;BME280;63906;55.686;37.532;2022-12-07T05:03:29;100625.00;;;-9.41;60.91
75312;BME280;63906;55.686;37.532;2022-12-07T05:08:30;100607.56;;;-9.56;61.76
75312;BME280;63906;55.686;37.532;2022-12-07T05:13:31;100641.75;;;-9.31;61.20
75312;BME280;63906;55.686;37.532;2022-12-07T05:18:31;100610.59;;;-9.42;61.37
75312;BME280;63906;55.686;37.532;2022-12-07T05:23:32;100602.47;;;-9.56;61.88
75312;BME280;63906;55.686;37.532;2022-12-07T05:28:32;100635.09;;;-9.36;62.50
75312;BME280;63906;55.686;37.532;2022-12-07T05:33:33;100616.06;;;-9.57;63.63
75312;BME280;63906;55.686;37.532;2022-12-07T05:38:33;100598.41;;;-9.65;64.20
75312;BME280;63906;55.686;37.532;2022-12-07T05:43:34;100631.44;;;-9.28;63.05
75312;BME280;63906;55.686;37.532;2022-12-07T05:48:34;100567.13;;;-9.70;63.80
75312;BME280;63906;55.686;37.532;2022-12-07T05:53:36;100607.59;;;-9.58;64.04
75312;BME280;63906;55.686;37.532;2022-12-07T05:58:37;100585.16;;;-9.45;63.96
75312;BME280;63906;55.686;37.532;2022-12-07T06:03:56;100593.84;;;-9.52;64.79
75312;BME280;63906;55.686;37.532;2022-12-07T06:08:56;100594.81;;;-9.56;65.42
75312;BME280;63906;55.686;37.532;2022-12-07T06:13:57;100599.25;;;-9.30;64.69
75312;BME280;63906;55.686;37.532;2022-12-07T06:18:57;100600.19;;;-9.34;64.79
75312;BME280;63906;55.686;37.532;2022-12-07T06:23:58;100593.66;;;-9.44;65.41
75312;BME280;63906;55.686;37.532;2022-12-07T06:28:59;100616.00;;;-9.22;65.21
75312;BME280;63906;55.686;37.532;2022-12-07T06:34:00;100616.94;;;-9.26;65.95
75312;BME280;63906;55.686;37.532;2022-12-07T06:39:02;100585.88;;;-9.40;65.98
75312;BME280;63906;55.686;37.532;2022-12-07T06:44:04;100598.69;;;-9.41;67.08
75312;BME280;63906;55.686;37.532;2022-12-07T06:49:05;100625.25;;;-9.17;66.09
75312;BME280;63906;55.686;37.532;2022-12-07T06:54:07;100616.81;;;-9.21;66.72
75312;BME280;63906;55.686;37.532;2022-12-07T06:59:08;100597.47;;;-9.28;66.66
75312;BME280;63906;55.686;37.532;2022-12-07T07:04:09;100613.66;;;-9.29;67.22
75312;BME280;63906;55.686;37.532;2022-12-07T07:09:09;100585.84;;;-9.38;66.14
75312;BME280;63906;55.686;37.532;2022-12-07T07:14:10;100598.81;;;-9.15;65.90
75312;BME280;63906;55.686;37.532;2022-12-07T07:19:10;100627.84;;;-9.20;66.91
75312;BME280;63906;55.686;37.532;2022-12-07T07:24:11;100610.84;;;-9.20;66.54
75312;BME280;63906;55.686;37.532;2022-12-07T07:29:11;100593.84;;;-9.19;65.82
75312;BME280;63906;55.686;37.532;2022-12-07T07:34:12;100606.97;;;-9.02;65.97
75312;BME280;63906;55.686;37.532;2022-12-07T07:39:12;100608.63;;;-9.01;65.16
75312;BME280;63906;55.686;37.532;2022-12-07T07:44:13;100571.41;;;-8.77;64.72
75312;BME280;63906;55.686;37.532;2022-12-07T07:49:14;100583.69;;;-8.90;64.67
75312;BME280;63906;55.686;37.532;2022-12-07T07:54:14;100595.72;;;-8.95;65.88
75312;BME280;63906;55.686;37.532;2022-12-07T07:59:15;100555.97;;;-9.02;64.49
75312;BME280;63906;55.686;37.532;2022-12-07T08:04:16;100586.75;;;-8.79;65.13
75312;BME280;63906;55.686;37.532;2022-12-07T08:09:16;100562.38;;;-8.89;65.07
75312;BME280;63906;55.686;37.532;2022-12-07T08:14:17;100586.31;;;-8.63;63.88
75312;BME280;63906;55.686;37.532;2022-12-07T08:19:17;100558.97;;;-8.88;63.93
75312;BME280;63906;55.686;37.532;2022-12-07T08:24:18;100576.81;;;-8.58;63.93
75312;BME280;63906;55.686;37.532;2022-12-07T08:29:18;100591.22;;;-8.56;63.52
75312;BME280;63906;55.686;37.532;2022-12-07T08:34:19;100586.06;;;-8.28;62.13
75312;BME280;63906;55.686;37.532;2022-12-07T08:39:19;100561.81;;;-8.41;61.17
75312;BME280;63906;55.686;37.532;2022-12-07T08:44:21;100570.91;;;-8.06;61.31
75312;BME280;63906;55.686;37.532;2022-12-07T08:49:25;100547.75;;;-8.28;61.18
75312;BME280;63906;55.686;37.532;2022-12-07T08:54:28;100534.16;;;-8.55;61.85
75312;BME280;63906;55.686;37.532;2022-12-07T08:59:29;100494.88;;;-8.77;60.99
75312;BME280;63906;55.686;37.532;2022-12-07T09:04:29;100536.25;;;-8.15;61.37
75312;BME280;63906;55.686;37.532;2022-12-07T09:09:30;100527.81;;;-8.17;60.14
75312;BME280;63906;55.686;37.532;2022-12-07T09:14:31;100522.34;;;-8.31;60.15
75312;BME280;63906;55.686;37.532;2022-12-07T09:19:31;100523.41;;;-8.11;59.91
75312;BME280;63906;55.686;37.532;2022-12-07T09:24:32;100528.50;;;-7.85;59.64
75312;BME280;63906;55.686;37.532;2022-12-07T09:29:32;100464.13;;;-8.21;58.93
75312;BME280;63906;55.686;37.532;2022-12-07T09:34:33;100519.53;;;-7.72;58.04
75312;BME280;63906;55.686;37.532;2022-12-07T09:39:33;100492.63;;;-7.82;58.62
75312;BME280;63906;55.686;37.532;2022-12-07T09:44:34;100487.59;;;-7.85;57.95
75312;BME280;63906;55.686;37.532;2022-12-07T09:49:36;100511.66;;;-7.66;57.76
75312;BME280;63906;55.686;37.532;2022-12-07T09:54:41;100484.38;;;-7.90;57.28
75312;BME280;63906;55.686;37.532;2022-12-07T09:59:44;100509.00;;;-7.39;57.89
75312;BME280;63906;55.686;37.532;2022-12-07T10:04:44;100483.00;;;-7.27;57.16
75312;BME280;63906;55.686;37.532;2022-12-07T10:09:45;100488.53;;;-7.39;56.29
75312;BME280;63906;55.686;37.532;2022-12-07T10:14:55;100490.66;;;-7.27;55.68
75312;BME280;63906;55.686;37.532;2022-12-07T10:25:19;100465.41;;;-6.89;54.84
75312;BME280;63906;55.686;37.532;2022-12-07T10:30:20;100475.31;;;-7.03;54.45
75312;BME280;63906;55.686;37.532;2022-12-07T10:35:26;100489.28;;;-6.89;55.51
75312;BME280;63906;55.686;37.532;2022-12-07T10:45:30;100477.88;;;-6.60;54.74
75312;BME280;63906;55.686;37.532;2022-12-07T11:11:33;100445.22;;;-6.75;53.94
75312;BME280;63906;55.686;37.532;2022-12-07T11:16:55;100438.00;;;-6.65;54.71
75312;BME280;63906;55.686;37.532;2022-12-07T11:21:58;100442.59;;;-6.52;53.86
75312;BME280;63906;55.686;37.532;2022-12-07T11:37:13;100423.50;;;-6.87;55.38
75312;BME280;63906;55.686;37.532;2022-12-07T11:42:32;100396.34;;;-7.35;56.31
75312;BME280;63906;55.686;37.532;2022-12-07T11:58:38;100415.03;;;-7.56;59.01
75312;BME280;63906;55.686;37.532;2022-12-07T12:03:45;100380.84;;;-7.77;59.40
75312;BME280;63906;55.686;37.532;2022-12-07T12:09:13;100400.63;;;-7.59;58.91
75312;BME280;63906;55.686;37.532;2022-12-07T12:24:29;100384.59;;;-8.10;60.50
75312;BME280;63906;55.686;37.532;2022-12-07T12:29:43;100382.47;;;-8.23;61.09
75312;BME280;63906;55.686;37.532;2022-12-07T12:45:22;100373.69;;;-8.39;61.80
75312;BME280;63906;55.686;37.532;2022-12-07T12:50:29;100383.56;;;-8.30;61.53
75312;BME280;63906;55.686;37.532;2022-12-07T12:56:07;100381.09;;;-8.33;62.32
75312;BME280;63906;55.686;37.532;2022-12-07T13:01:36;100392.66;;;-8.46;63.08
75312;BME280;63906;55.686;37.532;2022-12-07T13:06:40;100379.53;;;-8.60;63.71
75312;BME280;63906;55.686;37.532;2022-12-07T13:11:44;100381.94;;;-8.56;63.71
75312;BME280;63906;55.686;37.532;2022-12-07T13:16:46;100381.19;;;-8.59;64.11
75312;BME280;63906;55.686;37.532;2022-12-07T13:21:46;100373.72;;;-8.65;64.86
75312;BME280;63906;55.686;37.532;2022-12-07T13:26:47;100346.06;;;-8.78;64.68
75312;BME280;63906;55.686;37.532;2022-12-07T13:31:56;100329.78;;;-8.74;64.37
75312;BME280;63906;55.686;37.532;2022-12-07T13:42:30;100359.50;;;-8.73;66.21
75312;BME280;63906;55.686;37.532;2022-12-07T13:47:48;100355.25;;;-8.72;65.83
75312;BME280;63906;55.686;37.532;2022-12-07T13:52:50;100358.31;;;-8.89;66.05
75312;BME280;63906;55.686;37.532;2022-12-07T13:57:55;100364.69;;;-8.76;65.70
75312;BME280;63906;55.686;37.532;2022-12-07T14:03:04;100356.38;;;-8.81;65.24
75312;BME280;63906;55.686;37.532;2022-12-07T14:13:33;100359.72;;;-8.79;65.01
75312;BME280;63906;55.686;37.532;2022-12-07T14:23:37;100353.41;;;-8.95;65.49
75312;BME280;63906;55.686;37.532;2022-12-07T14:28:38;100319.59;;;-9.00;65.88
75312;BME280;63906;55.686;37.532;2022-12-07T14:33:40;100337.41;;;-8.99;65.80
75312;BME280;63906;55.686;37.532;2022-12-07T14:38:41;100346.47;;;-8.90;65.48
75312;BME280;63906;55.686;37.532;2022-12-07T14:43:41;100320.94;;;-8.90;64.21
75312;BME280;63906;55.686;37.532;2022-12-07T14:48:42;100321.97;;;-8.94;64.90
75312;BME280;63906;55.686;37.532;2022-12-07T14:53:45;100346.91;;;-8.77;64.55
75312;BME280;63906;55.686;37.532;2022-12-07T14:58:47;100339.09;;;-8.73;65.17
75312;BME280;63906;55.686;37.532;2022-12-07T15:03:48;100319.06;;;-9.10;65.71
75312;BME280;63906;55.686;37.532;2022-12-07T15:08:49;100332.88;;;-8.90;65.29
75312;BME280;63906;55.686;37.532;2022-12-07T15:13:49;100300.19;;;-9.04;65.76
75312;BME280;63906;55.686;37.532;2022-12-07T15:19:15;100323.06;;;-9.03;65.74
75312;BME280;63906;55.686;37.532;2022-12-07T15:24:19;100339.69;;;-8.91;65.82
75312;BME280;63906;55.686;37.532;2022-12-07T15:29:20;100328.13;;;-9.01;66.71
75312;BME280;63906;55.686;37.532;2022-12-07T15:34:21;100302.88;;;-9.09;66.03
75312;BME280;63906;55.686;37.532;2022-12-07T15:39:23;100308.75;;;-9.07;66.68
75312;BME280;63906;55.686;37.532;2022-12-07T15:44:23;100279.44;;;-9.20;66.83
75312;BME280;63906;55.686;37.532;2022-12-07T15:49:42;100267.13;;;-9.07;66.18
75312;BME280;63906;55.686;37.532;2022-12-07T15:54:43;100302.31;;;-8.92;66.35
75312;BME280;63906;55.686;37.532;2022-12-07T15:59:43;100242.00;;;-9.19;66.42
75312;BME280;63906;55.686;37.532;2022-12-07T16:04:44;100279.88;;;-9.07;67.08
75312;BME280;63906;55.686;37.532;2022-12-07T16:09:46;100288.25;;;-9.04;67.38
75312;BME280;63906;55.686;37.532;2022-12-07T16:14:46;100266.59;;;-9.17;67.15
75312;BME280;63906;55.686;37.532;2022-12-07T16:19:47;100267.22;;;-9.10;67.48
75312;BME280;63906;55.686;37.532;2022-12-07T16:24:47;100291.06;;;-9.11;67.72
75312;BME280;63906;55.686;37.532;2022-12-07T16:29:48;100303.63;;;-9.05;67.54
75312;BME280;63906;55.686;37.532;2022-12-07T16:34:48;100246.84;;;-9.37;68.21
75312;BME280;63906;55.686;37.532;2022-12-07T16:39:49;100253.03;;;-9.17;67.25
75312;BME280;63906;55.686;37.532;2022-12-07T16:44:49;100255.81;;;-9.25;68.00
75312;BME280;63906;55.686;37.532;2022-12-07T16:49:59;100244.69;;;-9.23;68.03
75312;BME280;63906;55.686;37.532;2022-12-07T16:54:59;100244.69;;;-9.23;67.88
75312;BME280;63906;55.686;37.532;2022-12-07T17:00:00;100276.59;;;-9.11;67.79
75312;BME280;63906;55.686;37.532;2022-12-07T17:05:00;100239.19;;;-9.10;67.60
75312;BME280;63906;55.686;37.532;2022-12-07T17:10:01;100245.44;;;-9.20;67.90
75312;BME280;63906;55.686;37.532;2022-12-07T17:15:02;100243.59;;;-9.15;68.58
75312;BME280;63906;55.686;37.532;2022-12-07T17:20:19;100250.56;;;-9.20;68.89
75312;BME280;63906;55.686;37.532;2022-12-07T17:25:20;100241.59;;;-9.32;68.37
75312;BME280;63906;55.686;37.532;2022-12-07T17:30:20;100242.56;;;-9.10;68.67
75312;BME280;63906;55.686;37.532;2022-12-07T17:35:21;100208.50;;;-9.34;68.05
75312;BME280;63906;55.686;37.532;2022-12-07T17:40:22;100254.53;;;-9.12;68.68
75312;BME280;63906;55.686;37.532;2022-12-07T17:45:22;100218.22;;;-9.18;68.48
75312;BME280;63906;55.686;37.532;2022-12-07T17:50:23;100227.03;;;-9.29;68.72
75312;BME280;63906;55.686;37.532;2022-12-07T17:55:43;100256.06;;;-9.06;68.77
75312;BME280;63906;55.686;37.532;2022-12-07T18:00:44;100253.50;;;-9.06;69.32
75312;BME280;63906;55.686;37.532;2022-12-07T18:05:44;100243.59;;;-8.90;68.07
75312;BME280;63906;55.686;37.532;2022-12-07T18:10:47;100227.59;;;-9.19;68.12
75312;BME280;63906;55.686;37.532;2022-12-07T18:15:55;100211.63;;;-8.99;68.95
75312;BME280;63906;55.686;37.532;2022-12-07T18:20:55;100207.91;;;-9.15;68.61
75312;BME280;63906;55.686;37.532;2022-12-07T18:25:56;100187.22;;;-9.33;69.28
75312;BME280;63906;55.686;37.532;2022-12-07T18:30:56;100207.38;;;-9.25;68.46
75312;BME280;63906;55.686;37.532;2022-12-07T18:35:59;100224.56;;;-9.05;69.12
75312;BME280;63906;55.686;37.532;2022-12-07T18:41:00;100196.13;;;-9.19;68.98
75312;BME280;63906;55.686;37.532;2022-12-07T18:46:03;100184.25;;;-9.19;69.21
75312;BME280;63906;55.686;37.532;2022-12-07T18:51:10;100219.63;;;-9.10;69.51
75312;BME280;63906;55.686;37.532;2022-12-07T19:01:13;100210.19;;;-9.08;69.59
75312;BME280;63906;55.686;37.532;2022-12-07T19:06:14;100202.03;;;-9.17;69.89
75312;BME280;63906;55.686;37.532;2022-12-07T19:11:23;100183.38;;;-9.19;69.28
75312;BME280;63906;55.686;37.532;2022-12-07T19:16:43;100164.88;;;-9.25;70.05
75312;BME280;63906;55.686;37.532;2022-12-07T19:21:43;100159.09;;;-9.30;69.61
75312;BME280;63906;55.686;37.532;2022-12-07T19:26:44;100182.41;;;-9.15;69.68
75312;BME280;63906;55.686;37.532;2022-12-07T19:31:45;100198.44;;;-9.12;70.29
75312;BME280;63906;55.686;37.532;2022-12-07T19:36:48;100188.66;;;-9.24;70.43
75312;BME280;63906;55.686;37.532;2022-12-07T19:41:49;100197.63;;;-9.12;69.97
75312;BME280;63906;55.686;37.532;2022-12-07T19:46:51;100193.69;;;-9.23;70.26
75312;BME280;63906;55.686;37.532;2022-12-07T19:51:57;100194.66;;;-9.00;69.24
75312;BME280;63906;55.686;37.532;2022-12-07T19:56:58;100166.97;;;-9.36;70.04
75312;BME280;63906;55.686;37.532;2022-12-07T20:01:58;100193.75;;;-9.24;70.00
75312;BME280;63906;55.686;37.532;2022-12-07T20:07:00;100165.72;;;-9.51;70.56
75312;BME280;63906;55.686;37.532;2022-12-07T20:12:00;100201.41;;;-9.24;70.57
75312;BME280;63906;55.686;37.532;2022-12-07T20:17:21;100195.84;;;-9.10;69.60
75312;BME280;63906;55.686;37.532;2022-12-07T20:22:21;100170.13;;;-9.29;69.97
75312;BME280;63906;55.686;37.532;2022-12-07T20:27:24;100182.63;;;-9.22;70.23
75312;BME280;63906;55.686;37.532;2022-12-07T20:32:25;100169.97;;;-9.25;70.63
75312;BME280;63906;55.686;37.532;2022-12-07T20:37:25;100166.84;;;-9.33;70.41
75312;BME280;63906;55.686;37.532;2022-12-07T20:42:26;100171.91;;;-9.31;70.85
75312;BME280;63906;55.686;37.532;2022-12-07T20:47:39;100175.03;;;-9.23;70.57
75312;BME280;63906;55.686;37.532;2022-12-07T20:52:39;100143.41;;;-9.44;70.63
75312;BME280;63906;55.686;37.532;2022-12-07T20:57:40;100144.03;;;-9.36;70.29
75312;BME280;63906;55.686;37.532;2022-12-07T21:02:40;100149.94;;;-9.35;70.18
75312;BME280;63906;55.686;37.532;2022-12-07T21:07:41;100132.56;;;-9.49;70.78
75312;BME280;63906;55.686;37.532;2022-12-07T21:12:41;100137.25;;;-9.37;70.71
75312;BME280;63906;55.686;37.532;2022-12-07T21:17:42;100143.00;;;-9.32;70.63
75312;BME280;63906;55.686;37.532;2022-12-07T21:22:42;100136.66;;;-9.20;69.94
75312;BME280;63906;55.686;37.532;2022-12-07T21:27:43;100154.50;;;-8.95;69.21
75312;BME280;63906;55.686;37.532;2022-12-07T21:32:43;100123.22;;;-9.24;69.35
75312;BME280;63906;55.686;37.532;2022-12-07T21:37:44;100109.38;;;-9.16;69.64
75312;BME280;63906;55.686;37.532;2022-12-07T21:42:44;100111.97;;;-9.18;69.71
75312;BME280;63906;55.686;37.532;2022-12-07T21:47:45;100113.63;;;-9.17;70.55
75312;BME280;63906;55.686;37.532;2022-12-07T21:52:46;100137.53;;;-8.96;68.90
75312;BME280;63906;55.686;37.532;2022-12-07T21:57:46;100123.91;;;-8.95;69.81
75312;BME280;63906;55.686;37.532;2022-12-07T22:02:47;100113.59;;;-8.92;69.80
75312;BME280;63906;55.686;37.532;2022-12-07T22:07:47;100096.03;;;-9.00;69.18
75312;BME280;63906;55.686;37.532;2022-12-07T22:12:48;100116.16;;;-8.92;70.55
75312;BME280;63906;55.686;37.532;2022-12-07T22:17:48;100092.69;;;-8.78;69.86
75312;BME280;63906;55.686;37.532;2022-12-07T22:22:49;100118.66;;;-8.45;69.73
75312;BME280;63906;55.686;37.532;2022-12-07T22:27:50;100101.47;;;-8.63;69.82
75312;BME280;63906;55.686;37.532;2022-12-07T22:32:50;100121.19;;;-8.44;70.56
75312;BME280;63906;55.686;37.532;2022-12-07T22:37:51;100122.75;;;-8.63;71.40
75312;BME280;63906;55.686;37.532;2022-12-07T22:42:52;100094.19;;;-8.29;70.41
75312;BME280;63906;55.686;37.532;2022-12-07T22:47:52;100082.59;;;-8.36;70.49
75312;BME280;63906;55.686;37.532;2022-12-07T22:52:53;100062.28;;;-8.39;71.90
75312;BME280;63906;55.686;37.532;2022-12-07T22:57:54;100064.81;;;-8.39;72.27
75312;BME280;63906;55.686;37.532;2022-12-07T23:02:54;100038.53;;;-8.41;71.04
75312;BME280;63906;55.686;37.532;2022-12-07T23:07:55;100077.06;;;-8.05;71.98
75312;BME280;63906;55.686;37.532;2022-12-07T23:12:55;100077.91;;;-8.04;72.24
75312;BME280;63906;55.686;37.532;2022-12-07T23:18:15;100079.44;;;-8.00;71.75
75312;BME280;63906;55.686;37.532;2022-12-07T23:23:16;100040.97;;;-8.18;71.75
75312;BME280;63906;55.686;37.532;2022-12-07T23:28:16;100051.78;;;-8.11;72.03
75312;BME280;63906;55.686;37.532;2022-12-07T23:33:17;100043.88;;;-8.05;71.77
75312;BME280;63906;55.686;37.532;2022-12-07T23:38:17;100043.88;;;-7.84;71.67
75312;BME280;63906;55.686;37.532;2022-12-07T23:43:18;100035.63;;;-7.71;70.97
75312;BME280;63906;55.686;37.532;2022-12-07T23:48:18;99987.63;;;-8.24;71.88
75312;BME280;63906;55.686;37.532;2022-12-07T23:53:19;100052.63;;;-7.49;70.73
75312;BME280;63906;55.686;37.532;2022-12-07T23:58:19;100027.72;;;-7.85;71.81
